createdAt,value
2019-05-07T00:01:26.301Z,70.34
2019-05-07T00:03:57.825Z,70.04
2019-05-07T00:06:29.049Z,70.19
2019-05-07T00:09:00.078Z,69.45
2019-05-07T00:11:32.981Z,69.91
2019-05-07T00:14:03.602Z,69.53
2019-05-07T00:16:34.565Z,69.70
2019-05-07T00:19:06.251Z,69.41
2019-05-07T00:21:37.396Z,70.11
2019-05-07T00:24:10.029Z,69.83
2019-05-07T00:26:43.112Z,70.16
2019-05-07T00:29:14.117Z,70.28
2019-05-07T00:31:45.123Z,69.54
2019-05-07T00:34:17.632Z,71.69
2019-05-07T00:37:02.148Z,70.57
2019-05-07T00:39:52.769Z,70.04
2019-05-07T00:42:48.647Z,70.85
2019-05-07T00:45:25.890Z,70.10
2019-05-07T00:47:57.039Z,70.40
2019-05-07T00:50:33.112Z,70.01
2019-05-07T00:53:04.263Z,69.54
2019-05-07T00:55:35.518Z,70.03
2019-05-07T00:58:06.502Z,69.66
2019-05-07T01:00:37.836Z,71.02
2019-05-07T01:03:08.915Z,70.36
2019-05-07T01:05:39.901Z,70.54
2019-05-07T01:08:13.005Z,70.65
2019-05-07T01:10:43.994Z,70.40
2019-05-07T01:13:14.991Z,70.57
2019-05-07T01:15:45.887Z,70.13
2019-05-07T01:18:16.882Z,71.01
2019-05-07T01:20:47.877Z,70.58
2019-05-07T01:23:18.845Z,69.65
2019-05-07T01:25:52.379Z,69.53
2019-05-07T01:28:22.981Z,69.20
2019-05-07T01:30:54.080Z,69.84
2019-05-07T01:33:49.262Z,70.49
2019-05-07T01:36:22.581Z,69.49
2019-05-07T01:38:54.040Z,69.02
2019-05-07T01:41:25.049Z,69.17
2019-05-07T01:43:55.989Z,70.08
2019-05-07T01:46:26.944Z,69.88
2019-05-07T01:48:58.063Z,70.10
2019-05-07T01:51:29.276Z,70.17
2019-05-07T01:54:02.251Z,70.21
2019-05-07T01:56:34.058Z,70.74
2019-05-07T01:59:06.343Z,69.59
2019-05-07T02:01:37.269Z,69.80
2019-05-07T02:04:32.649Z,69.88
2019-05-07T02:07:33.481Z,70.00
2019-05-07T02:10:32.086Z,70.55
2019-05-07T02:13:04.025Z,70.84
2019-05-07T02:15:34.992Z,71.32
2019-05-07T02:18:07.497Z,70.54
2019-05-07T02:20:38.927Z,70.45
2019-05-07T02:23:09.928Z,69.35
2019-05-07T02:25:41.996Z,69.88
2019-05-07T02:28:13.713Z,70.26
2019-05-07T02:30:44.821Z,69.96
2019-05-07T02:33:16.035Z,70.39
2019-05-07T02:35:46.951Z,70.18
2019-05-07T02:38:33.959Z,70.27
2019-05-07T02:41:14.157Z,70.19
2019-05-07T02:43:44.670Z,70.39
2019-05-07T02:46:31.831Z,69.08
2019-05-07T02:49:32.794Z,68.80
2019-05-07T02:52:13.620Z,68.36
2019-05-07T02:55:08.448Z,68.88
2019-05-07T02:57:39.390Z,69.85
2019-05-07T03:00:14.082Z,69.68
2019-05-07T03:02:43.837Z,70.00
2019-05-07T03:05:14.863Z,69.37
2019-05-07T03:07:45.824Z,70.06
2019-05-07T03:10:18.183Z,70.32
2019-05-07T03:12:49.159Z,70.04
2019-05-07T03:15:20.369Z,69.40
2019-05-07T03:17:53.759Z,68.36
2019-05-07T03:20:29.044Z,68.34
2019-05-07T03:23:03.093Z,68.52
2019-05-07T03:25:57.298Z,69.72
2019-05-07T03:28:33.816Z,69.40
2019-05-07T03:31:16.915Z,68.74
2019-05-07T03:33:56.380Z,68.98
2019-05-07T03:36:49.154Z,69.55
2019-05-07T03:39:20.406Z,69.94
2019-05-07T03:41:53.087Z,69.95
2019-05-07T03:44:46.608Z,69.71
2019-05-07T03:47:33.106Z,69.56
2019-05-07T03:50:04.467Z,68.63
2019-05-07T03:52:35.842Z,69.20
2019-05-07T03:55:08.186Z,68.60
2019-05-07T03:57:43.585Z,69.41
2019-05-07T04:00:15.538Z,69.36
2019-05-07T04:02:46.557Z,70.29
2019-05-07T04:05:17.599Z,70.12
2019-05-07T04:07:53.702Z,70.35
2019-05-07T04:10:23.494Z,70.04
2019-05-07T04:12:56.546Z,70.62
2019-05-07T04:15:27.603Z,71.44
2019-05-07T04:17:58.556Z,71.40
2019-05-07T04:20:29.649Z,70.99
2019-05-07T04:23:03.973Z,70.83
2019-05-07T04:25:46.821Z,69.95
2019-05-07T04:28:48.516Z,70.49
2019-05-07T04:31:22.739Z,70.80
2019-05-07T04:33:53.435Z,71.39
2019-05-07T04:36:28.897Z,72.44
2019-05-07T04:39:03.027Z,73.60
2019-05-07T04:41:34.367Z,72.47
2019-05-07T04:44:09.090Z,72.90
2019-05-07T04:46:47.987Z,72.50
2019-05-07T04:49:16.386Z,72.49
2019-05-07T04:54:15.275Z,73.97
2019-05-07T04:56:47.940Z,73.69
2019-05-07T04:59:19.101Z,74.07
2019-05-07T05:01:53.267Z,76.11
2019-05-07T05:04:30.168Z,75.93
2019-05-07T05:06:56.810Z,75.89
2019-05-07T05:09:27.894Z,75.27
2019-05-07T05:11:58.753Z,75.86
2019-05-07T05:14:29.822Z,75.90
2019-05-07T05:17:02.062Z,75.34
2019-05-07T05:19:33.300Z,76.04
2019-05-07T05:22:31.633Z,74.93
2019-05-07T05:25:18.469Z,75.84
2019-05-07T05:27:49.409Z,75.80
2019-05-07T05:30:37.275Z,76.04
2019-05-07T05:33:08.601Z,75.57
2019-05-07T05:35:42.878Z,77.00
2019-05-07T05:38:13.427Z,75.48
2019-05-07T05:40:44.466Z,76.37
2019-05-07T05:43:31.919Z,75.86
2019-05-07T05:46:04.241Z,75.85
2019-05-07T05:48:35.234Z,74.67
2019-05-07T05:51:24.225Z,73.97
2019-05-07T05:54:06.100Z,73.79
2019-05-07T05:56:57.744Z,73.89
2019-05-07T05:59:49.310Z,74.58
2019-05-07T06:02:38.231Z,75.02
2019-05-07T06:05:34.392Z,75.06
2019-05-07T06:08:09.407Z,75.17
2019-05-07T06:10:58.092Z,74.47
2019-05-07T06:13:37.274Z,73.00
2019-05-07T06:16:28.949Z,73.69
2019-05-07T06:19:22.614Z,74.31
2019-05-07T06:22:24.764Z,74.14
2019-05-07T06:25:27.125Z,74.87
2019-05-07T06:27:58.288Z,73.50
2019-05-07T06:30:29.311Z,73.07
2019-05-07T06:33:02.730Z,72.64
2019-05-07T06:35:33.056Z,73.00
2019-05-07T06:38:06.118Z,73.05
2019-05-07T06:40:52.492Z,72.65
2019-05-07T06:43:48.601Z,73.14
2019-05-07T06:46:19.707Z,73.88
2019-05-07T06:48:52.729Z,72.85
2019-05-07T06:51:23.400Z,72.18
2019-05-07T06:53:54.380Z,71.45
2019-05-07T06:56:25.384Z,71.69
2019-05-07T06:59:07.589Z,71.36
2019-05-07T07:02:15.749Z,71.57
2019-05-07T07:04:52.329Z,71.02
2019-05-07T07:07:37.565Z,71.66
2019-05-07T07:10:17.135Z,70.58
2019-05-07T07:12:48.175Z,70.02
2019-05-07T07:15:19.275Z,70.23
2019-05-07T07:17:52.343Z,69.99
2019-05-07T07:20:23.171Z,70.57
2019-05-07T07:22:54.274Z,70.55
2019-05-07T07:25:25.473Z,69.98
2019-05-07T07:27:56.582Z,69.75
2019-05-07T07:30:49.372Z,69.47
2019-05-07T07:33:22.589Z,71.19
2019-05-07T07:35:53.675Z,69.84
2019-05-07T07:38:34.370Z,68.61
2019-05-07T07:41:33.426Z,68.71
2019-05-07T07:44:04.457Z,66.60
2019-05-07T07:46:35.508Z,66.94
2019-05-07T07:49:11.490Z,65.48
2019-05-07T07:51:42.692Z,64.31
2019-05-07T07:54:13.141Z,63.40
2019-05-07T07:57:06.014Z,64.76
2019-05-07T08:00:18.078Z,59.83
2019-05-07T08:03:02.244Z,61.87
2019-05-07T08:05:33.045Z,61.18
2019-05-07T08:08:04.041Z,60.47
2019-05-07T08:10:35.145Z,63.44
2019-05-07T08:13:06.267Z,60.64
2019-05-07T08:15:37.351Z,62.49
2019-05-07T08:18:08.518Z,61.24
2019-05-07T08:20:39.651Z,62.24
2019-05-07T08:23:12.206Z,60.00
2019-05-07T08:25:52.092Z,60.04
2019-05-07T08:28:23.386Z,60.16
2019-05-07T08:31:16.126Z,55.74
2019-05-07T08:33:57.099Z,55.34
2019-05-07T08:36:28.221Z,56.02
2019-05-07T08:38:59.321Z,56.38
2019-05-07T08:41:31.921Z,55.68
2019-05-07T08:44:17.254Z,51.33
2019-05-07T08:47:19.221Z,49.55
2019-05-07T08:49:49.473Z,52.02
2019-05-07T08:52:22.353Z,50.13
2019-05-07T08:54:53.311Z,52.20
2019-05-07T08:57:24.286Z,52.45
2019-05-07T09:00:00.383Z,52.68
2019-05-07T09:02:27.934Z,54.08
2019-05-07T09:04:58.812Z,50.41
2019-05-07T09:07:32.038Z,51.41
2019-05-07T09:10:02.695Z,51.54
2019-05-07T09:12:33.832Z,50.95
2019-05-07T09:15:05.423Z,53.31
2019-05-07T09:17:36.400Z,51.77
2019-05-07T09:20:09.300Z,50.14
2019-05-07T09:22:42.531Z,50.05
2019-05-07T09:25:13.179Z,50.68
2019-05-07T09:27:49.374Z,48.35
2019-05-07T09:30:42.185Z,49.71
2019-05-07T09:33:35.641Z,49.04
2019-05-07T09:36:12.126Z,50.46
2019-05-07T09:38:56.090Z,49.83
2019-05-07T09:41:27.315Z,50.94
2019-05-07T09:43:59.241Z,49.01
2019-05-07T09:46:32.351Z,48.87
2019-05-07T09:49:03.225Z,49.17
2019-05-07T09:51:34.191Z,47.76
2019-05-07T09:54:06.314Z,48.82
2019-05-07T09:56:37.314Z,47.82
2019-05-07T09:59:08.323Z,49.71
2019-05-07T10:01:39.465Z,47.89
2019-05-07T10:04:10.660Z,47.67
2019-05-07T10:06:42.478Z,48.73
2019-05-07T10:09:13.402Z,48.65
2019-05-07T10:12:03.361Z,48.09
2019-05-07T10:14:34.391Z,48.48
2019-05-07T10:17:22.394Z,45.75
2019-05-07T10:19:54.091Z,47.63
2019-05-07T10:22:28.146Z,47.06
2019-05-07T10:24:59.302Z,47.23
2019-05-07T10:27:32.302Z,47.90
2019-05-07T10:30:03.316Z,45.65
2019-05-07T10:32:34.303Z,45.83
2019-05-07T10:35:07.389Z,46.94
2019-05-07T10:37:38.366Z,46.49
2019-05-07T10:40:12.187Z,45.17
2019-05-07T10:42:43.239Z,44.57
2019-05-07T10:45:34.366Z,44.92
2019-05-07T10:48:18.843Z,45.83
2019-05-07T10:50:54.317Z,43.43
2019-05-07T10:56:53.846Z,45.03
2019-05-07T11:01:03.676Z,45.00
2019-05-07T11:03:35.831Z,45.76
2019-05-07T11:08:36.067Z,44.51
2019-05-07T11:11:07.092Z,44.36
2019-05-07T11:13:38.312Z,43.79
2019-05-07T11:16:12.498Z,42.15
2019-05-07T11:18:46.190Z,43.10
2019-05-07T11:21:19.879Z,42.98
2019-05-07T11:23:52.195Z,43.77
2019-05-07T11:26:26.358Z,41.37
2019-05-07T11:29:02.422Z,42.26
2019-05-07T11:31:33.455Z,42.88
2019-05-07T11:34:04.431Z,43.61
2019-05-07T11:36:35.375Z,43.01
2019-05-07T11:39:07.600Z,45.11
2019-05-07T11:41:56.344Z,45.13
2019-05-07T11:44:32.067Z,47.76
2019-05-07T11:47:28.122Z,47.05
2019-05-07T11:50:16.187Z,43.37
2019-05-07T11:52:59.638Z,45.98
2019-05-07T11:55:30.638Z,43.50
2019-05-07T11:58:02.470Z,45.19
2019-05-07T12:00:50.921Z,45.62
2019-05-07T12:03:22.158Z,45.93
2019-05-07T12:05:53.521Z,44.57
2019-05-07T12:08:37.378Z,45.08
2019-05-07T12:10:57.841Z,43.98
2019-05-07T12:13:32.493Z,43.56
2019-05-07T12:16:03.715Z,44.51
2019-05-07T12:18:34.812Z,40.84
2019-05-07T12:21:17.531Z,42.53
2019-05-07T12:23:39.294Z,41.29
2019-05-07T12:26:12.386Z,41.17
2019-05-07T12:28:43.140Z,41.74
2019-05-07T12:31:48.432Z,41.66
2019-05-07T12:34:26.998Z,41.68
2019-05-07T12:37:01.714Z,42.43
2019-05-07T12:39:33.018Z,42.93
2019-05-07T12:45:33.718Z,44.37
2019-05-07T12:48:33.143Z,44.23
2019-05-07T12:51:34.498Z,44.12
2019-05-07T12:55:51.951Z,43.92
2019-05-07T13:04:22.587Z,42.39
2019-05-07T13:07:02.367Z,42.37
2019-05-07T13:15:00.226Z,45.06
2019-05-07T13:28:26.119Z,45.31
2019-05-07T13:34:22.851Z,44.26
2019-05-07T13:43:11.827Z,45.03
2019-05-07T13:51:21.709Z,43.99
2019-05-07T13:56:24.683Z,43.81
2019-05-07T13:59:22.188Z,42.76
2019-05-07T14:02:15.719Z,43.28
2019-05-07T14:07:33.870Z,43.11
2019-05-07T14:14:04.790Z,42.75
2019-05-07T14:18:04.720Z,42.37
2019-05-07T14:19:54.737Z,42.68
2019-05-07T14:22:25.827Z,43.35
2019-05-07T14:24:56.825Z,41.49
2019-05-07T14:27:32.033Z,43.29
2019-05-07T14:30:03.207Z,40.70
2019-05-07T14:33:02.579Z,41.71
2019-05-07T14:35:55.857Z,41.61
2019-05-07T14:38:32.060Z,41.08
2019-05-07T14:41:03.673Z,41.58
2019-05-07T14:43:44.456Z,40.66
2019-05-07T14:46:15.452Z,41.07
2019-05-07T14:48:46.656Z,41.07
2019-05-07T14:51:17.844Z,41.34
2019-05-07T14:53:48.881Z,39.64
2019-05-07T14:56:23.078Z,40.67
2019-05-07T14:58:53.519Z,40.80
2019-05-07T15:01:25.629Z,39.94
2019-05-07T15:03:56.663Z,40.13
2019-05-07T15:06:27.673Z,40.21
2019-05-07T15:08:58.726Z,41.02
2019-05-07T15:11:31.662Z,40.52
2019-05-07T15:14:02.756Z,41.23
2019-05-07T15:16:35.382Z,40.61
2019-05-07T15:19:06.779Z,41.30
2019-05-07T15:21:38.049Z,42.04
2019-05-07T15:24:09.174Z,41.60
2019-05-07T15:26:41.984Z,39.22
2019-05-07T15:29:14.501Z,39.63
2019-05-07T15:31:59.159Z,39.78
2019-05-07T15:34:32.660Z,39.84
2019-05-07T15:37:03.693Z,40.15
2019-05-07T15:39:35.896Z,39.19
2019-05-07T15:42:07.313Z,39.86
2019-05-07T15:44:38.651Z,41.69
2019-05-07T15:47:14.640Z,40.53
2019-05-07T15:49:46.381Z,40.41
2019-05-07T15:52:23.288Z,39.51
2019-05-07T15:57:23.952Z,39.78
2019-05-07T16:02:33.574Z,41.37
2019-05-07T16:05:23.755Z,40.54
2019-05-07T16:10:27.667Z,40.70
2019-05-07T16:15:28.801Z,38.74
2019-05-07T16:20:29.382Z,38.82
2019-05-07T16:25:32.860Z,39.52
2019-05-07T16:30:34.483Z,39.25
2019-05-07T16:35:36.018Z,40.50
2019-05-07T16:40:36.262Z,40.53
2019-05-07T16:45:39.077Z,42.47
2019-05-07T16:48:11.985Z,43.40
2019-05-07T16:55:43.021Z,41.76
2019-05-07T17:00:47.469Z,43.00
2019-05-07T17:03:25.889Z,42.25
2019-05-07T17:05:54.456Z,42.50
2019-05-07T17:10:55.358Z,41.80
2019-05-07T17:15:57.627Z,42.28
2019-05-07T17:18:28.865Z,43.54
2019-05-07T17:23:41.308Z,42.24
2019-05-07T17:28:32.355Z,42.38
2019-05-07T17:33:35.863Z,42.05
2019-05-07T17:38:36.002Z,42.38
2019-05-07T17:43:37.704Z,43.01
2019-05-07T17:49:03.788Z,42.17
2019-05-07T17:51:43.198Z,43.21
2019-05-07T17:54:15.013Z,41.94
2019-05-07T17:56:46.052Z,41.74
2019-05-07T18:02:18.054Z,43.69
2019-05-07T18:04:54.006Z,42.90
2019-05-07T18:07:30.539Z,43.17
2019-05-07T18:12:32.152Z,42.85
2019-05-07T18:15:04.625Z,43.15
2019-05-07T18:17:42.118Z,43.46
2019-05-07T18:20:13.938Z,44.28
2019-05-07T18:22:44.939Z,44.21
2019-05-07T18:25:16.129Z,45.12
2019-05-07T18:27:47.158Z,45.19
2019-05-07T18:30:18.172Z,44.84
2019-05-07T18:32:54.275Z,45.19
2019-05-07T18:35:25.398Z,45.08
2019-05-07T18:37:56.364Z,44.77
2019-05-07T18:40:27.522Z,44.57
2019-05-07T18:43:02.847Z,44.97
2019-05-07T18:45:33.232Z,47.57
2019-05-07T18:48:07.017Z,49.86
2019-05-07T18:50:41.995Z,50.43
2019-05-07T18:53:16.089Z,48.99
2019-05-07T18:55:47.217Z,47.25
2019-05-07T18:58:22.443Z,48.32
2019-05-07T19:00:57.511Z,48.81
2019-05-07T19:03:29.168Z,50.83
2019-05-07T19:06:02.637Z,50.83
2019-05-07T19:08:35.309Z,51.17
2019-05-07T19:11:06.388Z,52.07
2019-05-07T19:13:37.454Z,52.41
2019-05-07T19:16:08.535Z,53.65
2019-05-07T19:18:39.638Z,53.38
2019-05-07T19:21:10.813Z,52.76
2019-05-07T19:23:42.471Z,53.00
2019-05-07T19:26:14.072Z,53.25
2019-05-07T19:28:47.988Z,52.82
2019-05-07T19:31:18.844Z,53.24
2019-05-07T19:33:49.791Z,53.92
2019-05-07T19:36:22.211Z,52.83
2019-05-07T19:38:53.312Z,53.14
2019-05-07T19:41:24.593Z,53.45
2019-05-07T19:43:55.738Z,54.56
2019-05-07T19:46:26.707Z,54.51
2019-05-07T19:48:57.681Z,54.37
2019-05-07T19:51:28.890Z,53.89
2019-05-07T19:54:02.003Z,53.73
2019-05-07T19:56:32.566Z,53.83
2019-05-07T19:59:03.842Z,53.43
2019-05-07T20:01:43.758Z,54.16
2019-05-07T20:04:15.170Z,53.29
2019-05-07T20:06:46.826Z,53.74
2019-05-07T20:09:23.503Z,53.25
2019-05-07T20:11:54.552Z,53.93
2019-05-07T20:14:25.661Z,53.24
2019-05-07T20:16:56.726Z,52.92
2019-05-07T20:19:27.809Z,53.79
2019-05-07T20:21:58.813Z,54.66
2019-05-07T20:24:29.889Z,54.02
2019-05-07T20:27:02.881Z,53.75
2019-05-07T20:29:35.526Z,53.91
2019-05-07T20:32:06.532Z,55.67
2019-05-07T20:37:06.351Z,56.20
2019-05-07T20:39:37.493Z,56.42
2019-05-07T20:42:12.396Z,57.08
2019-05-07T20:44:43.746Z,57.55
2019-05-07T20:47:14.720Z,56.92
2019-05-07T20:49:45.817Z,57.75
2019-05-07T20:52:23.187Z,57.23
2019-05-07T20:55:30.549Z,56.94
2019-05-07T20:57:57.898Z,57.43
2019-05-07T21:00:29.915Z,57.67
2019-05-07T21:03:24.555Z,59.27
2019-05-07T21:06:26.765Z,59.26
2019-05-07T21:08:57.950Z,59.77
2019-05-07T21:11:28.974Z,59.63
2019-05-07T21:14:00.138Z,59.59
2019-05-07T21:16:32.888Z,60.27
2019-05-07T21:19:03.821Z,60.49
2019-05-07T21:21:34.761Z,60.58
2019-05-07T21:24:06.347Z,59.49
2019-05-07T21:26:37.365Z,60.08
2019-05-07T21:29:08.366Z,59.38
2019-05-07T21:31:39.505Z,59.52
2019-05-07T21:34:12.413Z,59.54
2019-05-07T21:36:43.511Z,59.65
2019-05-07T21:39:14.534Z,59.61
2019-05-07T21:41:45.513Z,59.44
2019-05-07T21:44:16.565Z,59.55
2019-05-07T21:46:47.637Z,59.89
2019-05-07T21:49:22.719Z,60.48
2019-05-07T21:51:54.619Z,60.69
2019-05-07T21:54:33.025Z,60.73
2019-05-07T21:57:18.469Z,59.44
2019-05-07T21:59:52.084Z,59.24
2019-05-07T22:02:25.741Z,59.26
2019-05-07T22:04:56.651Z,60.04
2019-05-07T22:07:27.704Z,59.64
2019-05-07T22:09:59.104Z,61.02
2019-05-07T22:12:31.941Z,60.90
2019-05-07T22:15:04.500Z,61.90
2019-05-07T22:17:35.308Z,62.34
2019-05-07T22:20:06.371Z,62.80
2019-05-07T22:22:37.377Z,62.98
2019-05-07T22:25:08.712Z,63.56
2019-05-07T22:27:39.719Z,63.25
2019-05-07T22:30:12.608Z,62.87
2019-05-07T22:32:49.826Z,62.81
2019-05-07T22:35:28.093Z,61.29
2019-05-07T22:37:59.003Z,62.98
2019-05-07T22:40:32.015Z,63.01
2019-05-07T22:43:02.423Z,63.35
2019-05-07T22:45:33.345Z,64.05
2019-05-07T22:48:04.305Z,64.47
2019-05-07T22:50:42.072Z,66.62
2019-05-07T22:53:07.971Z,64.48
2019-05-07T22:55:38.892Z,63.37
2019-05-07T22:58:16.228Z,63.54
2019-05-07T23:00:51.784Z,62.84
2019-05-07T23:03:23.050Z,63.12
2019-05-07T23:05:56.711Z,62.92
2019-05-07T23:08:27.674Z,63.95
2019-05-07T23:10:58.923Z,63.41
2019-05-07T23:13:31.835Z,64.74
2019-05-07T23:16:02.735Z,63.85
2019-05-07T23:18:33.776Z,63.29
2019-05-07T23:21:04.795Z,64.53
2019-05-07T23:23:35.592Z,64.05
2019-05-07T23:26:06.419Z,64.47
2019-05-07T23:28:37.348Z,64.12
2019-05-07T23:31:08.340Z,64.67
2019-05-07T23:33:39.264Z,64.01
2019-05-07T23:36:10.258Z,63.84
2019-05-07T23:38:42.617Z,64.45
2019-05-07T23:41:32.959Z,64.66
2019-05-07T23:44:17.471Z,66.19
2019-05-07T23:46:48.392Z,65.54
2019-05-07T23:49:19.265Z,67.26
2019-05-07T23:51:50.263Z,66.23
2019-05-07T23:54:23.033Z,65.23
2019-05-07T23:57:04.993Z,64.75
2019-05-07T23:59:26.900Z,64.81
